Details From LIEE - Cagliari Elmas
To EGCK - Caernarfon
Flight Number -
Tags Generated
Created
Modified
Stats Distance 997 nm / 1,846 km
Max Altitude 0 ft / 0 m
Waypoints 6
Social Downloads 1
Likes 0
Share VATSIM

Download

Looking for another format? Having issues loading an existing format? Contact us
Advertisement - Login to hide

Notes

Generated

Route

LIEE TLN ARSOM ANGLO CAE EGCK

ID Type Via Altitude Latitude Longitude Leg Dist Tot Dist Heading (true) Name
O LIEE APT - 0 ft / 0 m 39.26081˚ 9.04347˚ - 0 nm - -
TLN NDB - 0 ft / 0 m 43.03269˚ 6.15281˚ 261 nm 261 nm 331° / 329° HYERES NDB
ARSOM FIX - 0 ft / 0 m 46.13722˚ 3.41972˚ 220 nm 481 nm 329° / 327° -
ANGLO FIX - 0 ft / 0 m 49.92833˚ -0.45500˚ 275 nm 757 nm 327° / 324° -
CAE NDB - 0 ft / 0 m 53.10009˚ -4.33952˚ 239 nm 996 nm 324° / 321° CAERNARFON NDB
O EGCK APT - 0 ft / 0 m 53.10056˚ -4.34333˚ 0 nm 996 nm 282° / 282° Caernarfon

Altitude Profile

Advertisement - Login to hide

Weather


0- 5 10 15 20 25 30 35+ Temperature / ° C

Clouds and Precipitation
Forecast for 2017-12-13 06:00 UTC. Updated 31 minutes ago

Ground ~20,000 ft ~40,000 ft Winds

LIEE

Details ICAO LIEE (CAG)
Name Cagliari Elmas
Region Italy
Timezone Europe/Rome (UTC+1.0)
Stats Elevation 13 ft / 4 m (AMSL)
Location 39.251475° 9.054291°
Runways 1
Magnetic Variation 2.297° E

METAR

LIEE 130120Z 33004KT 9999 FEW025 13/11 Q1019

Decode

TAF

TAF LIEE 122300Z 1300/1324 33012KT 9999 SCT040 TEMPO 1300/1303 RA= TAF LIEO 122300Z 1300/1324 VRB06KT 9999 SCT040 BECMG 1303/1306 26015KT BECMG 1310/1312 28015G25KT

Decode

Departure Runways

ID Width Length Bearing (true) Bearing (mag) Surface Threshold Offset Overrun Length
14 148 ft / 45 m 9,157 ft / 2,791 m 138.08° 135.78° Asphalt 0 ft / 0 m 187 ft / 57 m
32 148 ft / 45 m 9,157 ft / 2,791 m 318.09° 315.79° Asphalt 0 ft / 0 m 0 ft / 0 m

EGCK

Details ICAO EGCK
Name Caernarfon
Region United Kingdom
Timezone Europe/London (UTC+0.0)
Stats Elevation 13 ft / 4 m (AMSL)
Location 53.103081° -4.338717°
Runways 2
Magnetic Variation 2.211° W

METAR

EGCK 130120Z AUTO 25015KT 9999 FEW002/// BKN020/// BKN045/// 08/05 Q1000 RERA

Decode

TAF

Not found

Destination Runways

ID Width Length Bearing (true) Bearing (mag) Surface Threshold Offset Overrun Length
02 75 ft / 23 m 3,499 ft / 1,066 m 13.18° 15.39° Asphalt 253 ft / 77 m 3 ft / 1 m
08 75 ft / 23 m 2,995 ft / 913 m 70.77° 72.98° Asphalt 151 ft / 46 m 0 ft / 0 m
20 75 ft / 23 m 3,499 ft / 1,066 m 193.18° 195.39° Asphalt 0 ft / 0 m 0 ft / 0 m
26 75 ft / 23 m 2,995 ft / 913 m 250.78° 252.99° Asphalt 266 ft / 81 m 0 ft / 0 m